Welcome to the updated website with new and more accurate equipment. Established 2007


Active alerts


No alerts

Local Station more information Local Station


Mount Mesnard more information Mount Mesnard


Visit our other weather sites:

Template documentation
and downloads

And another site


CBI


Nearby METAR Reports

   
KSAW - Sawyer, Michigan
Updated: 22-06-2018 06:47
Clear  
Clear  
   Wind: Calm
Wind: Calm
Temperature: 41°F
Dew Point: 37.4°F
Humidity: 87%
Barometer: 29.96 inHg
Clouds: Clear
Visibility: 10 mi
Cloud details: Clear
KSAW 221047Z 00000KT 10SM SKC 05/03 A2996
KESC - Escanaba, Michigan
Updated: 22-06-2018 06:56
Clear  
Clear  
   Wind: Calm
Wind: Calm
Temperature: 48.2°F
Dew Point: 44.6°F
Humidity: 87%
Barometer: 29.94 inHg
Clouds: Clear
Visibility: 10 mi
Cloud details: Clear
KESC 221056Z AUTO 00000KT 10SM CLR 09/07 A2994 RMK AO2 SLP162 T00890067
KIMT - Iron Mountain, MI
Updated: 22-06-2018 06:54
Clear  
Clear  
   Wind: Calm
Wind: Calm
Temperature: 46.4°F
Dew Point: 44.6°F
Humidity: 93%
Barometer: 29.94 inHg
Clouds: Clear
Visibility: 10 mi
Cloud details: Clear
KIMT 221054Z AUTO 00000KT 10SM CLR 08/07 A2994 RMK AO2 SLP140 T00780067
KGRB - Green Bay, WI
Updated: 22-06-2018 06:53
Clear  
Clear  
   Wind: North 6.9 mph
Wind: North 6.9 mph
Temperature: 55.4°F
Dew Point: 51.8°F
Humidity: 88%
Barometer: 29.9 inHg
Clouds: Clear
Visibility: 10 mi
Cloud details: Clear
KGRB 221053Z 36006KT 10SM CLR 13/11 A2990 RMK AO2 SLP125 T01280111
KDET - Detroit, MI
Updated: 22-06-2018 06:53
Partly Cloudy  
Partly Cloudy  
   Wind: ENE 6.9 mph
Wind: ENE 6.9 mph
Temperature: 64.4°F
Dew Point: 46.4°F
Humidity: 52%
Barometer: 29.85 inHg
Clouds: Partly Cloudy
Visibility: 10 mi
Cloud details: Partly Cloudy 3658 m
KDET 221053Z 07006KT 10SM SCT120 18/08 A2985 RMK AO2 SLP104 T01780083
 

Script developed by  Saratoga-weather.org Adapted for the template by  Weerstation Leuven

You find our weather info also at:

Weather Underground

Midwestern Weather Network

WeatherlinkIP

Citizen Weather Observer Program (CWOP)

Equipment we use:

Weather-station
Davis VP2

Weather-program
Davis Weatherlink.Com

Davis VP2

Davis Weatherlink.Com